Time;durP1;ratioP1;P1;durP2;ratioP2;P2;SDS_P1;SDS_P2;PMS_P1;PMS_P2;Temp;Humidity;BMP_temperature;BMP_pressure;BME280_temperature;BME280_humidity;BME280_pressure;Samples;Min_cycle;Max_cycle;Signal;HPM_P1;HPM_P2
2021/01/05 00:01:26;;;;;;;;;;;1.20;99.90;;;;;;5048326;28;19917;-69
2021/01/05 00:03:52;;;;;;;;;;;1.20;99.90;;;;;;5052464;28;19928;-69
2021/01/05 00:06:17;;;;;;;;;;;1.20;99.90;;;;;;5047128;28;19927;-67
2021/01/05 00:08:43;;;;;;;;;;;1.20;99.90;;;;;;5060946;28;20074;-69
2021/01/05 00:11:08;;;;;;;;;;;1.20;99.90;;;;;;5054692;28;20003;-68
2021/01/05 00:13:34;;;;;;;;;;;1.20;99.90;;;;;;5049549;28;19970;-67
2021/01/05 00:15:59;;;;;;;;;;;1.30;99.90;;;;;;5053929;28;19931;-69
2021/01/05 00:18:25;;;;;;;;;;;1.30;99.90;;;;;;5067720;28;19917;-69
2021/01/05 00:20:50;;;;;;;;;;;1.20;99.90;;;;;;5068304;28;19966;-69
2021/01/05 00:23:16;;;;;;;;;;;1.20;99.90;;;;;;5066676;28;19950;-66
2021/01/05 00:25:42;;;;;;;;;;;1.20;99.90;;;;;;5065766;28;19923;-69
2021/01/05 00:28:08;;;;;;;;;;;1.10;99.90;;;;;;5060476;28;19913;-69
2021/01/05 00:30:34;;;;;;;;;;;1.00;99.90;;;;;;5060133;28;19920;-69
2021/01/05 00:32:59;;;;;;;;;;;1.00;99.90;;;;;;5059250;28;20646;-68
2021/01/05 00:35:29;;;;;;;;;;;1.00;99.90;;;;;;5067226;28;19920;-69
2021/01/05 00:37:55;;;;;;;;;;;1.00;99.90;;;;;;5068574;28;19935;-68
2021/01/05 00:40:21;;;;;;;;;;;1.00;99.90;;;;;;5068325;28;19912;-69
2021/01/05 00:42:47;;;;;;;;;;;1.00;99.90;;;;;;5051742;28;19948;-66
2021/01/05 00:45:17;;;;;;;;;;;0.90;99.90;;;;;;5050357;28;19964;-69
2021/01/05 00:47:43;;;;;;;;;;;0.90;99.90;;;;;;5065851;28;19916;-68
2021/01/05 00:50:09;;;;;;;;;;;0.90;99.90;;;;;;5052642;28;19920;-68
2021/01/05 00:52:34;;;;;;;;;;;0.90;99.90;;;;;;5054602;28;20011;-68
2021/01/05 00:55:00;;;;;;;;;;;0.80;99.90;;;;;;5062786;28;20395;-68
2021/01/05 00:57:25;;;;;;;;;;;0.90;99.90;;;;;;5064129;28;19952;-66
2021/01/05 00:59:51;;;;;;;;;;;0.90;99.90;;;;;;5058997;28;19916;-70
2021/01/05 01:02:16;;;;;;;;;;;0.90;99.90;;;;;;5052347;28;19924;-68
2021/01/05 01:04:42;;;;;;;;;;;0.80;99.90;;;;;;5056878;28;20437;-68
2021/01/05 01:07:07;;;;;;;;;;;0.80;99.90;;;;;;5061399;28;20293;-68
2021/01/05 01:09:33;;;;;;;;;;;0.70;99.90;;;;;;5067252;28;19912;-65
2021/01/05 01:12:14;;;;;;;;;;;0.70;99.90;;;;;;5047860;28;19936;-69
2021/01/05 01:14:40;;;;;;;;;;;0.70;99.90;;;;;;5051846;28;19917;-68
2021/01/05 01:17:06;;;;;;;;;;;0.70;99.90;;;;;;5055382;28;20494;-68
2021/01/05 01:19:31;;;;;;;;;;;0.70;99.90;;;;;;5058566;28;19980;-67
2021/01/05 01:21:57;;;;;;;;;;;0.70;99.90;;;;;;5047932;28;19920;-69
2021/01/05 01:24:23;;;;;;;;;;;0.80;99.90;;;;;;5048423;28;19963;-69
2021/01/05 01:26:49;;;;;;;;;;;0.80;99.90;;;;;;5056504;28;19917;-68
2021/01/05 01:29:18;;;;;;;;;;;0.70;99.90;;;;;;5067006;28;19919;-69
2021/01/05 01:31:44;;;;;;;;;;;0.70;99.90;;;;;;5067192;28;19916;-67
2021/01/05 01:34:10;;;;;;;;;;;0.80;99.90;;;;;;5059015;28;20661;-68
2021/01/05 01:36:36;;;;;;;;;;;0.80;99.90;;;;;;5055371;28;20412;-68
2021/01/05 01:39:02;;;;;;;;;;;0.90;99.90;;;;;;5066794;28;19916;-68
2021/01/05 01:41:27;;;;;;;;;;;0.90;99.90;;;;;;5067405;28;19943;-69
2021/01/05 01:43:53;;;;;;;;;;;0.90;99.90;;;;;;5057890;28;19923;-67
2021/01/05 01:46:18;;;;;;;;;;;0.90;99.90;;;;;;5056177;28;19925;-67
2021/01/05 01:48:44;;;;;;;;;;;0.90;99.90;;;;;;5066752;28;19916;-68
2021/01/05 01:51:10;;;;;;;;;;;0.80;99.90;;;;;;5066080;28;19919;-67
2021/01/05 01:53:36;;;;;;;;;;;0.90;99.90;;;;;;5064072;28;19916;-68
2021/01/05 01:56:15;;;;;;;;;;;0.80;99.90;;;;;;5066187;28;19923;-68
2021/01/05 01:58:46;;;;;;;;;;;0.90;99.90;;;;;;5064152;28;19920;-69
2021/01/05 02:01:15;;;;;;;;;;;0.90;99.90;;;;;;5066645;28;19912;-68
2021/01/05 02:03:47;;;;;;;;;;;0.90;99.90;;;;;;5064147;28;19928;-68
2021/01/05 02:06:24;;;;;;;;;;;0.90;99.90;;;;;;5065572;28;19920;-70
2021/01/05 02:08:56;;;;;;;;;;;0.90;99.90;;;;;;5066059;28;20373;-68
2021/01/05 02:11:32;;;;;;;;;;;0.90;99.90;;;;;;5059849;28;19920;-67
2021/01/05 02:14:07;;;;;;;;;;;0.80;99.90;;;;;;5065522;28;20443;-67
2021/01/05 02:16:40;;;;;;;;;;;0.80;99.90;;;;;;5065821;28;19916;-68
2021/01/05 02:19:19;;;;;;;;;;;0.80;99.90;;;;;;5065334;28;20234;-67
2021/01/05 02:22:02;;;;;;;;;;;0.80;99.90;;;;;;5059396;28;19912;-67
2021/01/05 02:24:35;;;;;;;;;;;0.80;99.90;;;;;;5065569;28;19927;-68
2021/01/05 02:27:03;;;;;;;;;;;0.80;99.90;;;;;;5062014;28;19955;-67
2021/01/05 02:29:33;;;;;;;;;;;0.90;99.90;;;;;;5063728;28;19916;-67
2021/01/05 02:32:03;;;;;;;;;;;0.90;99.90;;;;;;5057779;28;19912;-69
2021/01/05 02:34:35;;;;;;;;;;;0.90;99.90;;;;;;5064386;28;19916;-68
2021/01/05 02:37:06;;;;;;;;;;;0.90;99.90;;;;;;5068464;28;19921;-68
2021/01/05 02:39:40;;;;;;;;;;;1.00;99.90;;;;;;5066275;28;20414;-68
2021/01/05 02:42:17;;;;;;;;;;;1.00;99.90;;;;;;5058048;28;19916;-69
2021/01/05 02:45:01;;;;;;;;;;;1.10;99.90;;;;;;5062969;28;19959;-69
2021/01/05 02:47:35;;;;;;;;;;;1.10;99.90;;;;;;5065884;28;19963;-68
2021/01/05 02:50:07;;;;;;;;;;;1.10;99.90;;;;;;5051790;28;19921;-68
2021/01/05 02:52:50;;;;;;;;;;;1.10;99.90;;;;;;5046185;28;19916;-68
2021/01/05 02:55:21;;;;;;;;;;;1.10;99.90;;;;;;5059779;28;20281;-69
2021/01/05 02:57:47;;;;;;;;;;;1.10;99.90;;;;;;5059056;28;19947;-68
2021/01/05 03:00:24;;;;;;;;;;;1.20;99.90;;;;;;5046370;28;20376;-69
2021/01/05 03:03:08;;;;;;;;;;;1.20;99.90;;;;;;5064385;28;20455;-69
2021/01/05 03:05:34;;;;;;;;;;;1.10;99.90;;;;;;5064573;28;20376;-69
2021/01/05 03:07:59;;;;;;;;;;;1.20;99.90;;;;;;5068693;28;19912;-68
2021/01/05 03:10:28;;;;;;;;;;;1.10;99.90;;;;;;5056628;28;19923;-68
2021/01/05 03:13:12;;;;;;;;;;;1.10;99.90;;;;;;5062858;28;19942;-67
2021/01/05 03:15:42;;;;;;;;;;;1.10;99.90;;;;;;5046676;28;19917;-68
2021/01/05 03:18:14;;;;;;;;;;;1.10;99.90;;;;;;5065678;28;20002;-67
2021/01/05 03:20:42;;;;;;;;;;;1.10;99.90;;;;;;5048563;28;20011;-68
2021/01/05 03:23:10;;;;;;;;;;;1.10;99.90;;;;;;5059818;28;20374;-68
2021/01/05 03:25:37;;;;;;;;;;;1.10;99.90;;;;;;5056855;28;20613;-68
2021/01/05 03:28:04;;;;;;;;;;;1.10;99.90;;;;;;5057723;28;19916;-67
2021/01/05 03:30:41;;;;;;;;;;;1.10;99.90;;;;;;5064863;28;20403;-69
2021/01/05 03:33:07;;;;;;;;;;;1.20;99.90;;;;;;5049590;28;19992;-69
2021/01/05 03:35:32;;;;;;;;;;;1.20;99.90;;;;;;5046995;28;20145;-68
2021/01/05 03:37:58;;;;;;;;;;;1.20;99.90;;;;;;5067655;28;19913;-69
2021/01/05 03:40:24;;;;;;;;;;;1.20;99.90;;;;;;5064970;28;19997;-68
2021/01/05 03:42:50;;;;;;;;;;;1.10;99.90;;;;;;5064942;28;19962;-68
2021/01/05 03:45:20;;;;;;;;;;;1.20;99.90;;;;;;5067383;28;19925;-68
2021/01/05 03:47:46;;;;;;;;;;;1.10;99.90;;;;;;5068665;28;19984;-67
2021/01/05 03:50:12;;;;;;;;;;;1.10;99.90;;;;;;5063109;28;19959;-68
2021/01/05 03:52:38;;;;;;;;;;;1.10;99.90;;;;;;5054526;28;19912;-66
2021/01/05 03:55:04;;;;;;;;;;;1.10;99.90;;;;;;5068544;28;19928;-68
2021/01/05 03:57:29;;;;;;;;;;;1.10;99.90;;;;;;5068729;28;19912;-69
2021/01/05 03:59:55;;;;;;;;;;;1.10;99.90;;;;;;5068798;28;19966;-69
2021/01/05 04:02:20;;;;;;;;;;;1.10;99.90;;;;;;5068019;28;19927;-67
2021/01/05 04:04:46;;;;;;;;;;;1.10;99.90;;;;;;5067379;28;20074;-67
2021/01/05 04:07:11;;;;;;;;;;;1.10;99.90;;;;;;5072499;28;19924;-69
2021/01/05 04:09:37;;;;;;;;;;;1.10;99.90;;;;;;5068799;28;19912;-68
2021/01/05 04:12:02;;;;;;;;;;;1.20;99.90;;;;;;5048877;28;19993;-67
2021/01/05 04:14:28;;;;;;;;;;;1.20;99.90;;;;;;5067176;28;19915;-68
2021/01/05 04:16:53;;;;;;;;;;;1.20;99.90;;;;;;5068674;28;20078;-68
2021/01/05 04:19:19;;;;;;;;;;;1.20;99.90;;;;;;5067879;28;19913;-68
2021/01/05 04:21:48;;;;;;;;;;;1.30;99.90;;;;;;5067280;28;19916;-66
2021/01/05 04:24:13;;;;;;;;;;;1.30;99.90;;;;;;5067383;28;19928;-68
2021/01/05 04:26:39;;;;;;;;;;;1.30;99.90;;;;;;5063968;28;20002;-69
2021/01/05 04:29:04;;;;;;;;;;;1.30;99.90;;;;;;5068048;28;19957;-67
2021/01/05 04:31:35;;;;;;;;;;;1.30;99.90;;;;;;5068522;28;20276;-68
2021/01/05 04:34:01;;;;;;;;;;;1.20;99.90;;;;;;5048024;28;20851;-68
2021/01/05 04:36:26;;;;;;;;;;;1.20;99.90;;;;;;5064662;28;19928;-68
2021/01/05 04:38:52;;;;;;;;;;;1.20;99.90;;;;;;5070533;28;19915;-69
2021/01/05 04:41:18;;;;;;;;;;;1.20;99.90;;;;;;5067379;28;19916;-69
2021/01/05 04:43:46;;;;;;;;;;;1.30;99.90;;;;;;5066899;28;19920;-68
2021/01/05 04:46:14;;;;;;;;;;;1.20;99.90;;;;;;5068167;28;20011;-69
2021/01/05 04:48:41;;;;;;;;;;;1.20;99.90;;;;;;5067670;28;20037;-68
2021/01/05 04:51:16;;;;;;;;;;;1.30;99.90;;;;;;5067525;28;19982;-68
2021/01/05 04:54:03;;;;;;;;;;;1.30;99.90;;;;;;5060085;28;19913;-68
2021/01/05 04:56:49;;;;;;;;;;;1.20;99.90;;;;;;5062544;28;19921;-68
2021/01/05 04:59:16;;;;;;;;;;;1.30;99.90;;;;;;5056461;28;19917;-68
2021/01/05 05:01:42;;;;;;;;;;;1.30;99.90;;;;;;5067301;28;20313;-66
2021/01/05 05:04:13;;;;;;;;;;;1.40;99.90;;;;;;5064562;28;19938;-68
2021/01/05 05:06:42;;;;;;;;;;;1.40;99.90;;;;;;5071134;28;20315;-65
2021/01/05 05:09:23;;;;;;;;;;;1.40;99.90;;;;;;5059690;28;19917;-67
2021/01/05 05:11:48;;;;;;;;;;;1.40;99.90;;;;;;5065243;28;20050;-68
2021/01/05 05:14:40;;;;;;;;;;;1.40;99.90;;;;;;5047550;28;20000;-67
2021/01/05 05:17:11;;;;;;;;;;;1.30;99.90;;;;;;5059560;28;19917;-67
2021/01/05 05:19:40;;;;;;;;;;;1.40;99.90;;;;;;5066407;28;19916;-68
2021/01/05 05:22:12;;;;;;;;;;;1.40;99.90;;;;;;5065564;28;19920;-66
2021/01/05 05:24:43;;;;;;;;;;;1.40;99.90;;;;;;5065679;28;19923;-67
2021/01/05 05:27:27;;;;;;;;;;;1.40;99.90;;;;;;5063564;28;19959;-68
2021/01/05 05:29:54;;;;;;;;;;;1.40;99.90;;;;;;5067006;28;19951;-67
2021/01/05 05:32:38;;;;;;;;;;;1.40;99.90;;;;;;5049581;28;19994;-67
2021/01/05 05:35:04;;;;;;;;;;;1.40;99.90;;;;;;5066330;28;20397;-66
2021/01/05 05:37:44;;;;;;;;;;;1.40;99.90;;;;;;5072290;28;19942;-67
2021/01/05 05:40:16;;;;;;;;;;;1.30;99.90;;;;;;5066588;28;19923;-69
2021/01/05 05:42:48;;;;;;;;;;;1.30;99.90;;;;;;5066075;28;19924;-68
2021/01/05 05:45:15;;;;;;;;;;;1.30;99.90;;;;;;5070171;28;20013;-68
2021/01/05 05:47:44;;;;;;;;;;;1.30;99.90;;;;;;5065752;28;19928;-69
2021/01/05 05:50:22;;;;;;;;;;;1.20;99.90;;;;;;5066227;28;20003;-67
2021/01/05 05:53:05;;;;;;;;;;;1.20;99.90;;;;;;5045265;28;20011;-69
2021/01/05 05:55:39;;;;;;;;;;;1.30;99.90;;;;;;5055618;28;19938;-68
2021/01/05 05:58:06;;;;;;;;;;;1.20;99.90;;;;;;5064283;28;19917;-68
2021/01/05 06:00:34;;;;;;;;;;;1.30;99.90;;;;;;5066544;28;19921;-67
2021/01/05 06:03:01;;;;;;;;;;;1.30;99.90;;;;;;5065148;28;19921;-68
2021/01/05 06:05:37;;;;;;;;;;;1.30;99.90;;;;;;5065776;28;19959;-67
2021/01/05 06:08:03;;;;;;;;;;;1.30;99.90;;;;;;5070711;28;20230;-68
2021/01/05 06:10:29;;;;;;;;;;;1.40;99.90;;;;;;5065324;28;19931;-68
2021/01/05 06:12:55;;;;;;;;;;;1.40;99.90;;;;;;5065702;28;20304;-67
2021/01/05 06:15:20;;;;;;;;;;;1.40;99.90;;;;;;5066375;28;20255;-68
2021/01/05 06:17:46;;;;;;;;;;;1.30;99.90;;;;;;5065724;28;19940;-67
2021/01/05 06:20:12;;;;;;;;;;;1.30;99.90;;;;;;5065758;28;19920;-67
2021/01/05 06:22:37;;;;;;;;;;;1.30;99.90;;;;;;5064650;28;19917;-68
2021/01/05 06:25:04;;;;;;;;;;;1.30;99.90;;;;;;5065049;28;20011;-68
2021/01/05 06:27:30;;;;;;;;;;;1.40;99.90;;;;;;5063268;28;19916;-69
2021/01/05 06:29:55;;;;;;;;;;;1.30;99.90;;;;;;5054477;28;19922;-68
2021/01/05 06:32:21;;;;;;;;;;;1.30;99.90;;;;;;5064073;28;19920;-69
2021/01/05 06:34:46;;;;;;;;;;;1.40;99.90;;;;;;5065317;28;19936;-69
2021/01/05 06:37:12;;;;;;;;;;;1.40;99.90;;;;;;5069218;28;19959;-67
2021/01/05 06:39:37;;;;;;;;;;;1.40;99.90;;;;;;5057819;28;19920;-69
2021/01/05 06:42:03;;;;;;;;;;;1.40;99.90;;;;;;5066211;28;19921;-69
2021/01/05 06:44:28;;;;;;;;;;;1.40;99.90;;;;;;5065081;28;20077;-68
2021/01/05 06:46:54;;;;;;;;;;;1.40;99.90;;;;;;5065227;28;19927;-67
2021/01/05 06:49:19;;;;;;;;;;;1.50;99.90;;;;;;5065256;28;20046;-68
2021/01/05 06:51:45;;;;;;;;;;;1.50;99.90;;;;;;5065140;28;20333;-67
2021/01/05 06:54:11;;;;;;;;;;;1.40;99.90;;;;;;5064091;28;19912;-69
2021/01/05 06:56:49;;;;;;;;;;;1.50;99.90;;;;;;5066439;28;19920;-69
2021/01/05 06:59:15;;;;;;;;;;;1.50;99.90;;;;;;5066122;28;19916;-68
2021/01/05 07:01:40;;;;;;;;;;;1.50;99.90;;;;;;5060581;28;20047;-68
2021/01/05 07:04:06;;;;;;;;;;;1.50;99.90;;;;;;5052835;28;19917;-68
2021/01/05 07:06:31;;;;;;;;;;;1.50;99.90;;;;;;5049667;28;19992;-69
2021/01/05 07:08:57;;;;;;;;;;;1.50;99.90;;;;;;5058357;28;20023;-68
2021/01/05 07:11:22;;;;;;;;;;;1.50;99.90;;;;;;5065393;28;19916;-69
2021/01/05 07:13:48;;;;;;;;;;;1.40;99.90;;;;;;5065076;28;20261;-69
2021/01/05 07:16:13;;;;;;;;;;;1.50;99.90;;;;;;5063351;28;19917;-68
2021/01/05 07:18:39;;;;;;;;;;;1.40;99.90;;;;;;5064986;28;19936;-68
2021/01/05 07:21:04;;;;;;;;;;;1.40;99.90;;;;;;5068267;28;20381;-69
2021/01/05 07:23:30;;;;;;;;;;;1.40;99.90;;;;;;5067868;28;19921;-68
2021/01/05 07:25:55;;;;;;;;;;;1.30;99.90;;;;;;5069538;28;19920;-67
2021/01/05 07:28:21;;;;;;;;;;;1.30;99.90;;;;;;5055233;28;19921;-69
2021/01/05 07:30:46;;;;;;;;;;;1.20;99.90;;;;;;5057983;28;19951;-69
2021/01/05 07:33:12;;;;;;;;;;;1.10;99.90;;;;;;5067675;28;19916;-68
2021/01/05 07:35:37;;;;;;;;;;;1.00;99.90;;;;;;5068680;28;19916;-67
2021/01/05 07:38:03;;;;;;;;;;;1.00;99.90;;;;;;5070578;28;19939;-69
2021/01/05 07:40:29;;;;;;;;;;;0.80;99.90;;;;;;5069045;28;19963;-69
2021/01/05 07:42:54;;;;;;;;;;;0.70;99.90;;;;;;5069955;28;19955;-69
2021/01/05 07:45:21;;;;;;;;;;;0.70;99.90;;;;;;5068299;28;19916;-69
2021/01/05 07:47:46;;;;;;;;;;;0.70;99.90;;;;;;5069789;28;19927;-68
2021/01/05 07:50:20;;;;;;;;;;;0.80;99.90;;;;;;5067714;28;19917;-68
2021/01/05 07:52:46;;;;;;;;;;;0.90;99.90;;;;;;5068671;28;19924;-69
2021/01/05 07:55:13;;;;;;;;;;;0.90;99.90;;;;;;5069900;28;19924;-69
2021/01/05 07:57:38;;;;;;;;;;;1.00;99.90;;;;;;5068864;28;19912;-66
2021/01/05 08:00:05;;;;;;;;;;;1.00;99.90;;;;;;5068631;28;20349;-67
2021/01/05 08:02:31;;;;;;;;;;;1.00;99.90;;;;;;5068453;28;19977;-68
2021/01/05 08:04:56;;;;;;;;;;;1.00;99.90;;;;;;5051879;28;19920;-68
2021/01/05 08:07:22;;;;;;;;;;;1.00;99.90;;;;;;5070261;28;19943;-68
2021/01/05 08:09:47;;;;;;;;;;;1.00;99.90;;;;;;5068361;28;20007;-68
2021/01/05 08:12:15;;;;;;;;;;;1.00;99.90;;;;;;5066230;28;19921;-68
2021/01/05 08:14:51;;;;;;;;;;;1.00;99.90;;;;;;5049558;28;20322;-65
2021/01/05 08:17:16;;;;;;;;;;;0.90;99.90;;;;;;5068237;28;20027;-68
2021/01/05 08:19:45;;;;;;;;;;;0.90;99.90;;;;;;5067602;28;20594;-69
2021/01/05 08:22:11;;;;;;;;;;;0.90;99.90;;;;;;5066645;28;19916;-68
2021/01/05 08:24:37;;;;;;;;;;;1.00;99.90;;;;;;5067688;28;19916;-69
2021/01/05 08:27:05;;;;;;;;;;;1.00;99.90;;;;;;5066448;28;19927;-66
2021/01/05 08:29:30;;;;;;;;;;;1.00;99.90;;;;;;5065508;28;19916;-66
2021/01/05 08:31:56;;;;;;;;;;;1.10;99.90;;;;;;5066877;28;19998;-67
2021/01/05 08:34:21;;;;;;;;;;;1.20;99.90;;;;;;5053571;28;19939;-67
2021/01/05 08:36:47;;;;;;;;;;;1.20;99.90;;;;;;5066625;28;19990;-68
2021/01/05 08:39:13;;;;;;;;;;;1.20;99.90;;;;;;5068008;28;19978;-69
2021/01/05 08:41:42;;;;;;;;;;;1.10;99.90;;;;;;5060471;28;19917;-67
2021/01/05 08:44:08;;;;;;;;;;;1.00;99.90;;;;;;5047415;28;19921;-68
2021/01/05 08:46:34;;;;;;;;;;;1.10;99.90;;;;;;5067369;28;20386;-69
2021/01/05 08:49:00;;;;;;;;;;;1.10;99.90;;;;;;5066088;28;20260;-68
2021/01/05 08:51:25;;;;;;;;;;;1.10;99.90;;;;;;5058327;28;19912;-68
2021/01/05 08:53:51;;;;;;;;;;;1.10;99.90;;;;;;5063146;28;19920;-68
2021/01/05 08:56:18;;;;;;;;;;;1.10;99.90;;;;;;5047507;28;19917;-66
2021/01/05 08:58:43;;;;;;;;;;;1.10;99.90;;;;;;5064045;28;19917;-67
2021/01/05 09:01:09;;;;;;;;;;;1.10;99.90;;;;;;5068171;28;19993;-68
2021/01/05 09:03:35;;;;;;;;;;;1.10;99.90;;;;;;5067097;28;20007;-68
2021/01/05 09:06:00;;;;;;;;;;;1.20;99.90;;;;;;5069648;28;19916;-68
2021/01/05 09:08:32;;;;;;;;;;;1.20;99.90;;;;;;5064220;28;19920;-68
2021/01/05 09:11:01;;;;;;;;;;;1.20;99.90;;;;;;5062335;28;20675;-67
2021/01/05 09:13:27;;;;;;;;;;;1.10;99.90;;;;;;5055679;28;19952;-66
2021/01/05 09:15:52;;;;;;;;;;;1.00;99.90;;;;;;5053655;28;20279;-68
2021/01/05 09:18:19;;;;;;;;;;;0.90;99.90;;;;;;5050492;28;20376;-68
2021/01/05 09:20:47;;;;;;;;;;;0.90;99.90;;;;;;5066925;28;20392;-68
2021/01/05 09:23:13;;;;;;;;;;;0.90;99.90;;;;;;5049582;28;19936;-69
2021/01/05 09:25:38;;;;;;;;;;;0.90;99.90;;;;;;5055725;28;20219;-68
2021/01/05 09:28:04;;;;;;;;;;;0.90;99.90;;;;;;5066984;28;19920;-68
2021/01/05 09:30:30;;;;;;;;;;;0.90;99.90;;;;;;5067556;28;19975;-68
2021/01/05 09:32:55;;;;;;;;;;;0.80;99.90;;;;;;5062793;28;19920;-67
2021/01/05 09:35:21;;;;;;;;;;;0.80;99.90;;;;;;5055745;28;20223;-68
2021/01/05 09:37:47;;;;;;;;;;;0.80;99.90;;;;;;5059447;28;19947;-68
2021/01/05 09:40:14;;;;;;;;;;;0.90;99.90;;;;;;5067044;28;19916;-68
2021/01/05 09:42:40;;;;;;;;;;;0.80;99.90;;;;;;5066301;28;19912;-68
2021/01/05 09:45:07;;;;;;;;;;;0.80;99.90;;;;;;5066510;28;19927;-68
2021/01/05 09:47:32;;;;;;;;;;;1.00;99.90;;;;;;5066699;28;19915;-67
2021/01/05 09:49:57;;;;;;;;;;;1.20;99.90;;;;;;5066885;28;19916;-69
2021/01/05 09:52:24;;;;;;;;;;;1.30;99.90;;;;;;5063596;28;20222;-68
2021/01/05 09:54:51;;;;;;;;;;;1.40;99.90;;;;;;5066112;28;20270;-69
2021/01/05 09:57:17;;;;;;;;;;;1.50;99.90;;;;;;5067184;28;19923;-68
2021/01/05 09:59:44;;;;;;;;;;;1.50;99.90;;;;;;5066232;28;19916;-68
2021/01/05 10:02:10;;;;;;;;;;;1.70;99.90;;;;;;5058192;28;19955;-70
2021/01/05 10:04:36;;;;;;;;;;;1.80;99.90;;;;;;5066265;28;19920;-69
2021/01/05 10:07:01;;;;;;;;;;;1.90;99.90;;;;;;5069570;28;19970;-69
2021/01/05 10:09:27;;;;;;;;;;;1.90;99.90;;;;;;5061712;28;19924;-68
2021/01/05 10:11:52;;;;;;;;;;;2.00;99.90;;;;;;5055730;28;19946;-68
2021/01/05 10:14:19;;;;;;;;;;;2.00;99.90;;;;;;5061671;28;19921;-69
2021/01/05 10:16:45;;;;;;;;;;;2.10;99.90;;;;;;5058495;28;20358;-69
2021/01/05 10:19:13;;;;;;;;;;;2.20;99.90;;;;;;5058121;28;20051;-68
2021/01/05 10:21:40;;;;;;;;;;;2.20;99.90;;;;;;5065616;28;19912;-68
2021/01/05 10:24:06;;;;;;;;;;;2.20;99.90;;;;;;5060442;28;19921;-68
2021/01/05 10:26:33;;;;;;;;;;;2.30;99.90;;;;;;5066277;28;19979;-67
2021/01/05 10:28:58;;;;;;;;;;;2.30;99.90;;;;;;5058832;28;20401;-69
2021/01/05 10:31:24;;;;;;;;;;;2.30;99.90;;;;;;5058246;28;19912;-70
2021/01/05 10:33:50;;;;;;;;;;;2.40;99.90;;;;;;5065271;28;19913;-70
2021/01/05 10:36:16;;;;;;;;;;;2.40;99.90;;;;;;5066452;28;19921;-69
2021/01/05 10:38:42;;;;;;;;;;;2.30;99.90;;;;;;5069069;28;20385;-70
2021/01/05 10:41:07;;;;;;;;;;;2.40;99.90;;;;;;5066212;28;19921;-69
2021/01/05 10:43:32;;;;;;;;;;;2.40;99.90;;;;;;5065038;28;19977;-68
2021/01/05 10:45:58;;;;;;;;;;;2.40;99.90;;;;;;5065951;28;20050;-65
2021/01/05 10:48:23;;;;;;;;;;;2.50;99.90;;;;;;5065339;28;19923;-68
2021/01/05 10:50:49;;;;;;;;;;;2.50;99.90;;;;;;5065622;28;19921;-68
2021/01/05 10:53:14;;;;;;;;;;;2.50;99.90;;;;;;5059028;28;19963;-69
2021/01/05 10:55:40;;;;;;;;;;;2.60;99.90;;;;;;5060911;28;19917;-68
2021/01/05 10:58:05;;;;;;;;;;;2.70;99.90;;;;;;5053861;28;19993;-69
2021/01/05 11:00:32;;;;;;;;;;;2.60;99.90;;;;;;5055680;28;19913;-68
2021/01/05 11:02:58;;;;;;;;;;;2.70;99.90;;;;;;5058640;28;20698;-68
2021/01/05 11:05:24;;;;;;;;;;;2.70;99.90;;;;;;5062809;28;20350;-67
2021/01/05 11:07:51;;;;;;;;;;;2.70;99.90;;;;;;5066982;28;19919;-68
2021/01/05 11:10:17;;;;;;;;;;;2.80;99.90;;;;;;5049915;28;19912;-69
2021/01/05 11:12:42;;;;;;;;;;;2.80;99.90;;;;;;5061247;28;19928;-68
2021/01/05 11:15:11;;;;;;;;;;;2.80;99.90;;;;;;5060026;28;20016;-69
2021/01/05 11:17:36;;;;;;;;;;;2.90;99.90;;;;;;5056000;28;19959;-68
2021/01/05 11:20:02;;;;;;;;;;;2.90;99.90;;;;;;5064641;28;19993;-68
2021/01/05 11:22:27;;;;;;;;;;;2.90;99.90;;;;;;5064200;28;19979;-70
2021/01/05 11:24:53;;;;;;;;;;;3.00;99.90;;;;;;5065089;28;19932;-69
2021/01/05 11:27:18;;;;;;;;;;;2.90;99.90;;;;;;5065081;28;19983;-69
2021/01/05 11:29:45;;;;;;;;;;;2.90;99.90;;;;;;5065857;28;19917;-67
2021/01/05 11:32:15;;;;;;;;;;;2.90;99.90;;;;;;5062686;28;19950;-68
2021/01/05 11:34:41;;;;;;;;;;;2.90;99.90;;;;;;5044894;28;19981;-65
2021/01/05 11:37:08;;;;;;;;;;;2.70;99.90;;;;;;5069662;28;19916;-66
2021/01/05 11:39:34;;;;;;;;;;;2.70;99.90;;;;;;5065480;28;20074;-67
2021/01/05 11:42:00;;;;;;;;;;;2.80;99.90;;;;;;5065308;28;19955;-66
2021/01/05 11:44:26;;;;;;;;;;;2.80;99.90;;;;;;5065305;28;20029;-66
2021/01/05 11:46:51;;;;;;;;;;;2.80;99.90;;;;;;5065565;28;19930;-69
2021/01/05 11:49:17;;;;;;;;;;;2.70;99.90;;;;;;5064361;28;19916;-65
2021/01/05 11:51:43;;;;;;;;;;;2.70;99.90;;;;;;5065715;28;19916;-66
2021/01/05 11:54:08;;;;;;;;;;;2.70;99.90;;;;;;5063579;28;20065;-66
2021/01/05 11:56:34;;;;;;;;;;;2.60;99.90;;;;;;5065347;28;20389;-66
2021/01/05 11:59:00;;;;;;;;;;;2.50;99.90;;;;;;5066208;28;19912;-66
2021/01/05 12:01:26;;;;;;;;;;;2.30;99.90;;;;;;5065510;28;19925;-66
2021/01/05 12:03:52;;;;;;;;;;;2.20;99.90;;;;;;5063728;28;19912;-66
2021/01/05 12:06:19;;;;;;;;;;;2.30;99.90;;;;;;5071243;28;19938;-65
2021/01/05 12:08:44;;;;;;;;;;;2.40;99.90;;;;;;5073217;28;19920;-66
2021/01/05 12:11:39;;;;;;;;;;;2.20;99.90;;;;;;5057207;28;20344;-66
2021/01/05 12:14:05;;;;;;;;;;;1.80;99.90;;;;;;5061836;28;20418;-66
2021/01/05 12:16:31;;;;;;;;;;;1.80;99.90;;;;;;5067908;28;20523;-67
2021/01/05 12:18:58;;;;;;;;;;;1.80;99.90;;;;;;5068315;28;19916;-66
2021/01/05 12:21:24;;;;;;;;;;;1.80;99.90;;;;;;5068162;28;19971;-69
2021/01/05 12:23:49;;;;;;;;;;;2.00;99.90;;;;;;5067644;28;19923;-65
2021/01/05 12:26:29;;;;;;;;;;;2.20;99.90;;;;;;5068356;28;20357;-66
2021/01/05 12:28:55;;;;;;;;;;;2.30;99.90;;;;;;5069653;28;19986;-66
2021/01/05 12:31:21;;;;;;;;;;;2.30;99.90;;;;;;5060230;28;19920;-67
2021/01/05 12:33:47;;;;;;;;;;;2.40;99.90;;;;;;5063292;28;19974;-66
2021/01/05 12:36:12;;;;;;;;;;;2.50;99.90;;;;;;5060500;28;20027;-65
2021/01/05 12:38:39;;;;;;;;;;;2.50;99.90;;;;;;5060685;28;19916;-64
2021/01/05 12:41:05;;;;;;;;;;;2.50;99.90;;;;;;5060513;28;20253;-66
2021/01/05 12:43:30;;;;;;;;;;;2.50;99.90;;;;;;5059062;28;19916;-66
2021/01/05 12:45:56;;;;;;;;;;;2.40;99.90;;;;;;5060055;28;19927;-68
2021/01/05 12:48:21;;;;;;;;;;;2.20;99.90;;;;;;5057954;28;19920;-68
2021/01/05 12:50:47;;;;;;;;;;;2.10;99.90;;;;;;5060094;28;20242;-68
2021/01/05 12:53:13;;;;;;;;;;;2.00;99.90;;;;;;5056035;28;19924;-68
2021/01/05 12:55:38;;;;;;;;;;;2.00;99.90;;;;;;5058662;28;19920;-65
2021/01/05 12:58:04;;;;;;;;;;;1.90;99.90;;;;;;5057090;28;19921;-66
2021/01/05 13:00:29;;;;;;;;;;;1.80;99.90;;;;;;5056861;28;19974;-67
2021/01/05 13:02:55;;;;;;;;;;;1.80;99.90;;;;;;5057278;28;19940;-66
2021/01/05 13:05:20;;;;;;;;;;;1.80;99.90;;;;;;5057449;28;20023;-66
2021/01/05 13:07:46;;;;;;;;;;;1.80;99.90;;;;;;5060636;28;19995;-68
2021/01/05 13:10:15;;;;;;;;;;;1.70;99.90;;;;;;5054524;28;20081;-71
2021/01/05 13:12:42;;;;;;;;;;;1.70;99.90;;;;;;5056469;28;19992;-66
2021/01/05 13:15:08;;;;;;;;;;;1.80;99.90;;;;;;5059108;28;19917;-66
2021/01/05 13:17:38;;;;;;;;;;;1.80;99.90;;;;;;5058774;28;19917;-66
2021/01/05 13:20:04;;;;;;;;;;;1.90;99.90;;;;;;5057660;28;19924;-67
2021/01/05 13:22:29;;;;;;;;;;;1.80;99.90;;;;;;5054237;28;19923;-67
2021/01/05 13:24:55;;;;;;;;;;;1.90;99.90;;;;;;5059093;28;20032;-68
2021/01/05 13:27:20;;;;;;;;;;;1.90;99.90;;;;;;5055257;28;19916;-68
2021/01/05 13:29:45;;;;;;;;;;;2.00;99.90;;;;;;5056117;28;19927;-67
2021/01/05 13:32:14;;;;;;;;;;;2.00;99.90;;;;;;5061264;28;19923;-68
2021/01/05 13:34:41;;;;;;;;;;;2.00;99.90;;;;;;5065629;28;19917;-67
2021/01/05 13:37:07;;;;;;;;;;;2.00;99.90;;;;;;5070191;28;19912;-67
2021/01/05 13:39:33;;;;;;;;;;;2.10;99.90;;;;;;5066597;28;19969;-68
2021/01/05 13:42:02;;;;;;;;;;;2.10;99.90;;;;;;5066146;28;19920;-67
2021/01/05 13:44:28;;;;;;;;;;;2.10;99.90;;;;;;5061588;28;19967;-67
2021/01/05 13:46:57;;;;;;;;;;;2.00;99.90;;;;;;5054608;28;20451;-66
2021/01/05 13:49:23;;;;;;;;;;;2.00;99.90;;;;;;5053853;28;19936;-66
2021/01/05 13:51:49;;;;;;;;;;;2.00;99.90;;;;;;5056330;28;20360;-68
2021/01/05 13:54:16;;;;;;;;;;;2.00;99.90;;;;;;5057930;28;19917;-66
2021/01/05 13:56:42;;;;;;;;;;;2.10;99.90;;;;;;5058337;28;20403;-65
2021/01/05 13:59:07;;;;;;;;;;;2.10;99.90;;;;;;5060153;28;19920;-66
2021/01/05 14:01:33;;;;;;;;;;;2.10;99.90;;;;;;5056452;28;19913;-66
2021/01/05 14:03:58;;;;;;;;;;;2.10;99.90;;;;;;5055771;28;20617;-66
2021/01/05 14:06:25;;;;;;;;;;;2.10;99.90;;;;;;5061980;28;19920;-66
2021/01/05 14:08:51;;;;;;;;;;;2.10;99.90;;;;;;5056587;28;19917;-67
2021/01/05 14:11:18;;;;;;;;;;;2.20;99.90;;;;;;5059509;28;20673;-66
2021/01/05 14:13:43;;;;;;;;;;;2.20;99.90;;;;;;5055362;28;19974;-66
2021/01/05 14:16:13;;;;;;;;;;;2.30;99.90;;;;;;5058464;28;19924;-65
2021/01/05 14:18:39;;;;;;;;;;;2.30;99.90;;;;;;5056372;28;19935;-65
2021/01/05 14:21:05;;;;;;;;;;;2.30;99.90;;;;;;5054567;28;19916;-67
2021/01/05 14:23:30;;;;;;;;;;;2.40;99.90;;;;;;5054332;28;19917;-66
2021/01/05 14:26:00;;;;;;;;;;;2.40;99.90;;;;;;5058558;28;19942;-67
2021/01/05 14:28:25;;;;;;;;;;;2.40;99.90;;;;;;5057272;28;20550;-67
2021/01/05 14:30:51;;;;;;;;;;;2.40;99.90;;;;;;5056679;28;19947;-66
2021/01/05 14:33:16;;;;;;;;;;;2.30;99.90;;;;;;5052448;28;19920;-67